createdAt,value
2022-09-17T00:19:02.668Z,99.90
2022-09-17T00:21:30.920Z,99.90
2022-09-17T00:23:59.622Z,99.90
2022-09-17T00:26:27.858Z,99.90
2022-09-17T00:28:56.523Z,99.90
2022-09-17T00:31:25.274Z,99.90
2022-09-17T00:33:55.757Z,99.90
2022-09-17T00:46:32.613Z,99.90
2022-09-17T00:49:02.636Z,99.90
2022-09-17T00:51:34.620Z,99.90
2022-09-17T00:54:03.928Z,99.90
2022-09-17T00:56:33.713Z,99.90
2022-09-17T00:59:02.039Z,99.90
2022-09-17T01:01:31.415Z,99.90
2022-09-17T01:03:59.385Z,99.90
2022-09-17T01:06:32.510Z,99.90
2022-09-17T01:09:14.351Z,99.90
2022-09-17T01:11:52.401Z,99.90
2022-09-17T01:14:24.715Z,99.90
2022-09-17T01:16:58.691Z,99.90
2022-09-17T01:19:34.944Z,99.90
2022-09-17T01:22:04.641Z,99.90
2022-09-17T01:24:45.963Z,99.90
2022-09-17T01:27:34.611Z,99.90
2022-09-17T01:30:26.391Z,99.90
2022-09-17T01:32:59.471Z,99.90
2022-09-17T01:35:31.298Z,99.90
2022-09-17T01:38:01.713Z,99.90
2022-09-17T01:40:32.452Z,99.90
2022-09-17T01:43:04.215Z,99.90
2022-09-17T01:45:36.274Z,99.90
2022-09-17T01:48:08.353Z,99.90
2022-09-17T01:50:38.973Z,99.90
2022-09-17T01:53:08.639Z,99.90
2022-09-17T01:55:38.369Z,99.90
2022-09-17T01:58:08.809Z,99.90
2022-09-17T02:00:38.575Z,99.90
2022-09-17T02:03:10.192Z,99.90
2022-09-17T02:05:40.695Z,99.90
2022-09-17T02:08:10.368Z,99.90
2022-09-17T02:10:40.422Z,99.90
2022-09-17T02:13:10.088Z,99.90
2022-09-17T02:15:40.691Z,99.90
2022-09-17T02:18:12.711Z,99.90
2022-09-17T02:20:42.812Z,99.90
2022-09-17T02:23:14.124Z,99.90
2022-09-17T02:25:43.984Z,99.90
2022-09-17T02:28:15.032Z,99.90
2022-09-17T02:30:42.837Z,99.90
2022-09-17T02:33:14.426Z,99.90
2022-09-17T02:35:43.546Z,99.90
2022-09-17T02:38:11.719Z,99.90
2022-09-17T02:40:45.565Z,99.90
2022-09-17T02:43:17.377Z,99.90
2022-09-17T02:45:50.539Z,99.90
2022-09-17T02:48:25.669Z,99.90
2022-09-17T02:51:01.034Z,99.90
2022-09-17T02:53:33.615Z,99.90
2022-09-17T02:56:03.801Z,99.90
2022-09-17T02:58:34.157Z,99.90
2022-09-17T03:01:05.526Z,99.90
2022-09-17T03:03:36.339Z,99.90
2022-09-17T03:06:04.198Z,99.90
2022-09-17T03:08:35.269Z,99.90
2022-09-17T03:11:04.727Z,99.90
2022-09-17T03:13:32.555Z,99.90
2022-09-17T03:16:00.387Z,99.90
2022-09-17T03:18:28.222Z,99.90
2022-09-17T03:20:57.406Z,99.90
2022-09-17T03:23:25.546Z,99.90
2022-09-17T03:25:53.558Z,99.90
2022-09-17T03:28:21.362Z,99.90
2022-09-17T03:30:49.182Z,99.90
2022-09-17T03:33:17.001Z,99.90
2022-09-17T03:35:44.814Z,99.90
2022-09-17T03:38:14.280Z,99.90
2022-09-17T03:40:42.416Z,99.90
2022-09-17T03:43:10.234Z,99.90
2022-09-17T03:45:38.045Z,99.90
2022-09-17T03:48:05.853Z,99.90
2022-09-17T03:50:33.631Z,99.90
2022-09-17T03:53:01.420Z,99.90
2022-09-17T03:55:30.595Z,99.90
2022-09-17T03:57:58.387Z,99.90
2022-09-17T04:00:26.251Z,99.90
2022-09-17T04:02:54.106Z,99.90
2022-09-17T04:05:21.997Z,99.90
2022-09-17T04:07:49.796Z,99.90
2022-09-17T04:10:17.590Z,99.90
2022-09-17T04:12:46.791Z,99.90
2022-09-17T04:15:14.601Z,99.90
2022-09-17T04:17:42.411Z,99.90
2022-09-17T04:22:40.539Z,99.90
2022-09-17T04:25:08.782Z,99.90
2022-09-17T04:27:36.635Z,99.90
2022-09-17T04:30:06.325Z,99.90
2022-09-17T04:32:34.434Z,99.90
2022-09-17T04:35:02.249Z,99.90
2022-09-17T04:37:30.087Z,99.90
2022-09-17T04:39:57.991Z,99.90
2022-09-17T04:42:25.828Z,99.90
2022-09-17T04:44:53.609Z,99.90
2022-09-17T04:47:22.761Z,99.90
2022-09-17T04:49:50.559Z,99.90
2022-09-17T04:52:18.661Z,99.90
2022-09-17T04:54:46.526Z,99.90
2022-09-17T04:57:14.351Z,99.90
2022-09-17T04:59:42.168Z,99.90
2022-09-17T05:02:09.998Z,99.90
2022-09-17T05:04:39.204Z,99.90
2022-09-17T05:07:08.398Z,99.90
2022-09-17T05:09:38.686Z,99.90
2022-09-17T05:12:07.068Z,99.90
2022-09-17T05:14:34.869Z,99.90
2022-09-17T05:17:02.694Z,99.90
2022-09-17T05:19:30.930Z,99.90
2022-09-17T05:22:00.110Z,99.90
2022-09-17T05:24:28.227Z,99.90
2022-09-17T05:26:56.049Z,99.90
2022-09-17T05:29:23.886Z,99.90
2022-09-17T05:31:51.704Z,99.90
2022-09-17T05:34:19.487Z,99.90
2022-09-17T05:36:47.293Z,99.90
2022-09-17T05:39:16.462Z,99.90
2022-09-17T05:41:44.273Z,99.90
2022-09-17T05:44:16.014Z,99.90
2022-09-17T05:46:46.127Z,99.90
2022-09-17T05:49:15.094Z,99.90
2022-09-17T05:51:42.915Z,99.90
2022-09-17T05:54:10.710Z,99.90
2022-09-17T05:56:39.869Z,99.90
2022-09-17T05:59:07.693Z,99.90
2022-09-17T06:01:35.529Z,99.90
2022-09-17T06:04:03.818Z,99.90
2022-09-17T06:06:31.668Z,99.90
2022-09-17T06:09:00.631Z,99.90
2022-09-17T06:11:28.495Z,99.90
2022-09-17T06:13:57.666Z,99.90
2022-09-17T06:16:25.675Z,99.90
2022-09-17T06:21:24.486Z,99.90
2022-09-17T06:26:22.949Z,99.90
2022-09-17T06:28:50.765Z,99.90
2022-09-17T06:31:20.013Z,99.90
2022-09-17T06:36:17.071Z,99.90
2022-09-17T06:38:44.876Z,99.90
2022-09-17T06:41:14.602Z,99.90
2022-09-17T06:43:42.649Z,99.90
2022-09-17T06:46:11.153Z,99.90
2022-09-17T06:48:40.338Z,99.90
2022-09-17T06:51:08.971Z,99.90
2022-09-17T06:53:37.881Z,99.90
2022-09-17T06:56:06.867Z,99.90
2022-09-17T06:58:37.110Z,99.90
2022-09-17T09:05:00.221Z,71.50
2022-09-17T09:07:30.162Z,48.10
2022-09-17T09:10:06.321Z,99.90
2022-09-17T09:12:35.273Z,99.90
2022-09-17T09:15:07.983Z,1.00
2022-09-17T09:17:39.533Z,99.90
2022-09-17T09:20:13.744Z,99.90
2022-09-17T09:22:46.568Z,99.90
2022-09-17T09:25:23.067Z,35.60
2022-09-17T09:28:15.621Z,1.00
2022-09-17T09:30:48.875Z,99.90
2022-09-17T09:33:18.622Z,1.00
2022-09-17T09:35:47.858Z,1.00
2022-09-17T09:38:19.430Z,10.30
2022-09-17T09:40:49.830Z,1.00
2022-09-17T09:43:20.004Z,99.90
2022-09-17T09:46:07.666Z,1.00
2022-09-17T09:48:38.427Z,99.90
2022-09-17T09:51:15.868Z,99.90
2022-09-17T09:53:48.496Z,1.00
2022-09-17T09:56:25.912Z,1.00
2022-09-17T09:58:53.751Z,99.90
2022-09-17T10:01:22.268Z,99.90
2022-09-17T10:03:51.972Z,99.90
2022-09-17T10:06:21.713Z,25.00
2022-09-17T10:09:04.424Z,99.90
2022-09-17T10:11:33.503Z,99.90
2022-09-17T10:14:15.058Z,99.90
2022-09-17T10:16:42.857Z,25.60
2022-09-17T10:19:14.213Z,99.90
2022-09-17T10:21:43.946Z,1.00
2022-09-17T10:24:17.761Z,1.00
2022-09-17T10:26:45.726Z,99.90
2022-09-17T10:29:14.891Z,99.90
2022-09-17T10:31:49.758Z,1.00
2022-09-17T10:34:21.402Z,99.90
2022-09-17T10:36:50.607Z,99.90
2022-09-17T10:39:28.987Z,1.00
2022-09-17T10:41:57.665Z,1.00
2022-09-17T10:44:26.172Z,1.00
2022-09-17T10:46:54.559Z,99.90
2022-09-17T10:49:29.684Z,99.90
2022-09-17T10:52:06.539Z,99.90
2022-09-17T10:54:41.416Z,63.00
2022-09-17T10:57:11.093Z,1.00
2022-09-17T10:59:44.178Z,1.00
2022-09-17T11:02:29.793Z,99.90
2022-09-17T11:05:03.849Z,1.00
2022-09-17T11:07:39.546Z,1.00
2022-09-17T11:10:12.449Z,99.90
2022-09-17T11:12:48.163Z,1.00
2022-09-17T11:15:22.970Z,99.90
2022-09-17T11:18:01.686Z,99.90
2022-09-17T11:20:39.409Z,99.90
2022-09-17T11:23:22.343Z,1.00
2022-09-17T11:25:57.147Z,57.40
2022-09-17T11:28:34.511Z,37.70
2022-09-17T11:31:10.597Z,1.00
2022-09-17T11:33:56.144Z,99.90
2022-09-17T11:36:26.259Z,99.90
2022-09-17T11:38:57.666Z,99.90
2022-09-17T11:41:28.690Z,99.90
2022-09-17T11:44:01.964Z,1.00
2022-09-17T11:46:31.868Z,99.90
2022-09-17T11:49:03.494Z,21.90
2022-09-17T11:51:33.829Z,99.90
2022-09-17T11:54:05.114Z,99.90
2022-09-17T11:56:35.887Z,1.00
2022-09-17T11:59:06.485Z,34.90
2022-09-17T12:01:45.340Z,99.90
2022-09-17T12:04:23.540Z,1.00
2022-09-17T12:06:55.758Z,99.90
2022-09-17T12:09:27.101Z,1.00
2022-09-17T12:11:58.916Z,1.00
2022-09-17T12:14:30.134Z,20.30
2022-09-17T12:16:59.583Z,1.00
2022-09-17T12:19:30.909Z,1.00
2022-09-17T12:22:00.933Z,99.90
2022-09-17T12:24:30.877Z,1.00
2022-09-17T12:27:04.475Z,1.00
2022-09-17T12:29:37.820Z,43.90
2022-09-17T12:32:15.705Z,38.30
2022-09-17T12:34:51.924Z,86.00
2022-09-17T12:37:23.197Z,23.30
2022-09-17T12:40:08.677Z,99.90
2022-09-17T12:42:48.064Z,42.80
2022-09-17T12:45:33.853Z,1.00
2022-09-17T12:48:19.385Z,1.00
2022-09-17T12:50:52.361Z,1.00
2022-09-17T12:53:23.356Z,99.90
2022-09-17T12:55:56.694Z,99.90
2022-09-17T12:58:34.286Z,1.00
2022-09-17T13:01:04.415Z,99.90
2022-09-17T13:03:34.613Z,99.90
2022-09-17T13:06:11.701Z,99.90
2022-09-17T13:08:47.429Z,99.90
2022-09-17T13:11:39.075Z,99.90
2022-09-17T13:14:14.686Z,99.90
2022-09-17T13:16:44.782Z,99.90
2022-09-17T13:19:19.109Z,99.90
2022-09-17T13:21:50.750Z,99.90
2022-09-17T13:24:19.635Z,99.90
2022-09-17T13:26:47.516Z,59.90
2022-09-17T13:29:44.870Z,99.90
2022-09-17T13:32:35.447Z,99.90
2022-09-17T13:35:33.058Z,99.90
2022-09-17T13:38:01.664Z,56.30
2022-09-17T13:40:30.850Z,99.90
2022-09-17T13:42:59.367Z,82.70
2022-09-17T13:45:28.588Z,91.70
2022-09-17T13:47:58.085Z,99.90
2022-09-17T13:50:27.706Z,99.90
2022-09-17T13:52:56.749Z,97.70
2022-09-17T13:55:36.435Z,99.90
2022-09-17T13:58:05.405Z,99.90
2022-09-17T14:00:51.038Z,99.90
2022-09-17T14:03:37.844Z,99.90
2022-09-17T14:06:22.003Z,99.90
2022-09-17T14:08:50.895Z,99.90
2022-09-17T14:11:37.090Z,99.90
2022-09-17T14:14:37.005Z,99.90
2022-09-17T14:17:11.980Z,12.60
2022-09-17T14:19:51.093Z,16.40
2022-09-17T14:22:23.523Z,1.00
2022-09-17T14:24:52.975Z,1.00
2022-09-17T14:27:42.739Z,1.00
2022-09-17T14:30:15.133Z,1.00
2022-09-17T14:32:45.842Z,1.00
2022-09-17T14:35:19.765Z,1.00
2022-09-17T14:37:50.800Z,1.00
2022-09-17T14:40:19.816Z,1.00
2022-09-17T14:42:49.464Z,1.00
2022-09-17T14:45:26.010Z,1.00
2022-09-17T14:48:08.723Z,1.00
2022-09-17T14:50:38.343Z,1.00
2022-09-17T14:53:08.920Z,1.00
2022-09-17T14:55:41.649Z,1.00
2022-09-17T14:58:23.684Z,1.00
2022-09-17T15:00:53.976Z,1.00
2022-09-17T15:03:22.692Z,1.00
2022-09-17T15:05:52.222Z,1.00
2022-09-17T15:08:21.673Z,1.00
2022-09-17T15:10:50.605Z,1.00
2022-09-17T15:13:20.101Z,1.00
2022-09-17T15:15:52.350Z,1.00
2022-09-17T15:18:20.553Z,1.00
2022-09-17T15:20:48.927Z,1.00
2022-09-17T15:23:21.538Z,1.00
2022-09-17T15:25:51.727Z,1.00
2022-09-17T15:28:24.956Z,1.00
2022-09-17T15:30:52.918Z,1.00
2022-09-17T15:33:23.116Z,1.00
2022-09-17T15:36:00.922Z,1.00
2022-09-17T15:38:32.965Z,1.00
2022-09-17T15:41:16.574Z,1.00
2022-09-17T15:43:49.416Z,1.00
2022-09-17T15:46:23.468Z,1.00
2022-09-17T15:48:51.336Z,1.00
2022-09-17T15:51:23.905Z,1.00
2022-09-17T15:53:54.339Z,1.00
2022-09-17T15:56:23.845Z,1.00
2022-09-17T15:58:54.318Z,1.00
2022-09-17T16:01:40.220Z,1.00
2022-09-17T16:04:22.982Z,1.00
2022-09-17T16:06:54.069Z,99.90
2022-09-17T16:09:39.998Z,99.90
2022-09-17T16:12:08.035Z,1.00
2022-09-17T16:14:35.885Z,56.30
2022-09-17T16:17:10.876Z,1.00
2022-09-17T16:19:38.726Z,8.20
2022-09-17T16:22:06.577Z,1.00
2022-09-17T16:24:34.399Z,14.00
2022-09-17T16:27:04.539Z,1.00
2022-09-17T16:29:32.549Z,84.70
2022-09-17T16:32:00.392Z,99.90
2022-09-17T16:34:28.258Z,1.00
2022-09-17T16:36:56.097Z,95.80
2022-09-17T16:39:23.971Z,99.90
2022-09-17T16:41:51.804Z,99.90
2022-09-17T16:44:20.988Z,99.90
2022-09-17T16:46:48.892Z,99.90
2022-09-17T16:49:16.845Z,99.90
2022-09-17T16:51:44.678Z,88.90
2022-09-17T16:54:12.471Z,99.90
2022-09-17T16:56:40.323Z,1.00
2022-09-17T16:59:08.616Z,1.00
2022-09-17T17:01:38.988Z,99.90
2022-09-17T17:04:06.868Z,1.00
2022-09-17T17:06:34.682Z,1.00
2022-09-17T17:09:02.543Z,1.00
2022-09-17T17:11:30.465Z,1.00
2022-09-17T17:13:58.477Z,1.00
2022-09-17T17:16:26.535Z,99.90
2022-09-17T17:18:55.746Z,99.90
2022-09-17T17:21:23.609Z,99.90
2022-09-17T17:23:51.439Z,99.90
2022-09-17T17:26:19.358Z,1.00
2022-09-17T17:28:48.752Z,99.90
2022-09-17T17:31:16.656Z,99.90
2022-09-17T17:33:44.620Z,1.00
2022-09-17T17:36:14.098Z,99.90
2022-09-17T17:38:42.965Z,99.90
2022-09-17T17:41:11.691Z,1.00
2022-09-17T17:43:39.744Z,1.00
2022-09-17T17:46:08.392Z,1.00
2022-09-17T17:48:36.330Z,99.90
2022-09-17T17:51:04.678Z,33.30
2022-09-17T17:53:34.033Z,1.00
2022-09-17T17:56:02.465Z,99.90
2022-09-17T17:58:30.555Z,99.90
2022-09-17T18:00:58.475Z,99.90
2022-09-17T18:03:26.451Z,75.30
2022-09-17T18:05:56.364Z,99.90
2022-09-17T18:08:24.224Z,99.90
2022-09-17T18:10:54.011Z,1.00
2022-09-17T18:13:22.064Z,1.00
2022-09-17T18:15:53.968Z,1.00
2022-09-17T18:18:22.134Z,1.00
2022-09-17T18:20:51.109Z,99.90
2022-09-17T18:23:19.268Z,1.00
2022-09-17T18:25:55.152Z,1.00
2022-09-17T18:28:23.120Z,99.90
2022-09-17T18:30:51.002Z,99.90
2022-09-17T18:33:20.213Z,1.00
2022-09-17T18:35:48.241Z,1.00
2022-09-17T18:38:16.182Z,1.00
2022-09-17T18:40:44.623Z,1.00
2022-09-17T18:43:13.839Z,1.00
2022-09-17T18:48:12.363Z,5.00
2022-09-17T18:50:40.193Z,17.40
2022-09-17T18:53:07.987Z,10.30
2022-09-17T18:55:35.833Z,1.00
2022-09-17T18:58:03.696Z,5.10
2022-09-17T19:00:32.979Z,1.00
2022-09-17T19:03:00.904Z,1.00
2022-09-17T19:05:29.528Z,1.00
2022-09-17T19:07:57.371Z,1.00
2022-09-17T19:10:25.237Z,1.00
2022-09-17T19:12:53.051Z,1.00
2022-09-17T19:15:24.030Z,16.30
2022-09-17T19:17:55.652Z,99.90
2022-09-17T19:20:23.759Z,99.90
2022-09-17T19:22:51.752Z,82.70
2022-09-17T19:25:20.635Z,71.80
2022-09-17T19:27:49.113Z,78.50
2022-09-17T19:30:16.991Z,99.90
2022-09-17T19:32:48.060Z,21.50
2022-09-17T19:35:17.396Z,26.10
2022-09-17T19:37:45.233Z,15.30
2022-09-17T19:40:13.330Z,1.00
2022-09-17T19:42:41.261Z,7.70
2022-09-17T19:45:09.722Z,62.30
2022-09-17T19:47:37.551Z,52.80
2022-09-17T19:50:05.616Z,25.10
2022-09-17T19:52:34.838Z,59.30
2022-09-17T19:55:02.702Z,31.00
2022-09-17T19:57:30.489Z,55.50
2022-09-17T19:59:58.460Z,99.90
2022-09-17T20:02:26.337Z,92.00
2022-09-17T20:07:22.368Z,99.90
2022-09-17T20:09:51.603Z,99.90
2022-09-17T20:12:19.428Z,99.90
2022-09-17T20:14:47.225Z,99.50
2022-09-17T20:17:15.126Z,99.90
2022-09-17T20:19:42.941Z,99.90
2022-09-17T20:22:10.773Z,99.90
2022-09-17T20:24:38.712Z,99.90
2022-09-17T20:27:07.965Z,99.90
2022-09-17T20:29:35.789Z,99.90
2022-09-17T20:32:03.611Z,99.90
2022-09-17T20:34:31.460Z,99.90
2022-09-17T20:37:12.731Z,99.90
2022-09-17T20:39:41.581Z,99.90
2022-09-17T20:42:10.736Z,99.90
2022-09-17T20:44:38.574Z,99.90
2022-09-17T20:47:06.469Z,99.90
2022-09-17T20:49:34.611Z,99.90
2022-09-17T20:52:03.225Z,99.90
2022-09-17T20:54:31.043Z,99.90
2022-09-17T20:56:58.859Z,99.90
2022-09-17T20:59:46.445Z,99.90
2022-09-17T21:02:15.146Z,99.90
2022-09-17T21:04:42.972Z,99.90
2022-09-17T21:07:10.771Z,99.90
2022-09-17T21:09:41.930Z,99.90
2022-09-17T21:12:10.174Z,99.90
2022-09-17T21:14:39.381Z,99.90
2022-09-17T21:17:07.408Z,99.90
2022-09-17T21:19:35.210Z,99.90
2022-09-17T21:22:03.008Z,99.90
2022-09-17T21:24:30.860Z,99.90
2022-09-17T21:26:58.660Z,99.90
2022-09-17T21:29:26.491Z,99.90
2022-09-17T21:31:56.568Z,99.90
2022-09-17T21:34:24.489Z,99.90
2022-09-17T21:36:52.294Z,99.90
2022-09-17T21:39:20.138Z,99.90
2022-09-17T21:41:48.866Z,99.90
2022-09-17T21:44:16.889Z,99.90
2022-09-17T21:46:44.778Z,99.90
2022-09-17T21:49:16.365Z,99.90
2022-09-17T21:51:44.184Z,99.90
2022-09-17T21:54:12.741Z,99.90
2022-09-17T21:56:40.583Z,99.90
2022-09-17T21:59:09.757Z,99.90
2022-09-17T22:01:39.874Z,99.90
2022-09-17T22:04:08.582Z,99.90
2022-09-17T22:06:38.314Z,99.90
2022-09-17T22:09:06.992Z,99.90
2022-09-17T22:11:35.947Z,99.90
2022-09-17T22:14:08.783Z,99.90
2022-09-17T22:16:37.698Z,99.90
2022-09-17T22:19:05.942Z,99.90
2022-09-17T22:21:35.100Z,99.90
2022-09-17T22:24:04.913Z,99.90
2022-09-17T22:26:34.994Z,99.90
2022-09-17T22:29:03.828Z,99.90
2022-09-17T22:31:31.725Z,99.90
2022-09-17T22:33:59.617Z,99.90
2022-09-17T22:36:27.837Z,99.90
2022-09-17T22:38:56.647Z,99.90
2022-09-17T22:41:26.632Z,99.90
2022-09-17T22:43:55.203Z,99.90
2022-09-17T22:46:24.115Z,99.90
2022-09-17T22:48:52.137Z,99.90
2022-09-17T22:51:19.946Z,99.90
2022-09-17T22:53:47.760Z,99.90
2022-09-17T22:56:16.530Z,99.90
2022-09-17T22:58:45.726Z,99.90
2022-09-17T23:01:15.537Z,99.90
2022-09-17T23:03:43.827Z,99.90
2022-09-17T23:06:12.766Z,99.90
2022-09-17T23:08:40.753Z,99.90
2022-09-17T23:11:10.333Z,99.90
2022-09-17T23:13:38.116Z,99.90
2022-09-17T23:16:08.437Z,99.90
2022-09-17T23:18:36.711Z,99.90
2022-09-17T23:21:07.044Z,99.90
2022-09-17T23:23:35.438Z,99.90
2022-09-17T23:26:04.715Z,99.90
2022-09-17T23:28:32.579Z,99.90
2022-09-17T23:31:00.446Z,99.90
2022-09-17T23:33:29.644Z,99.90
2022-09-17T23:36:03.433Z,99.90
2022-09-17T23:38:31.541Z,99.90
2022-09-17T23:41:07.703Z,99.90
2022-09-17T23:43:35.526Z,99.90
2022-09-17T23:46:03.389Z,99.90
2022-09-17T23:48:32.593Z,99.90
2022-09-17T23:51:00.397Z,99.90
2022-09-17T23:53:29.965Z,99.90
2022-09-17T23:55:57.818Z,99.90
2022-09-17T23:58:25.598Z,99.90
